sensor_id;sensor_type;location;lat;lon;timestamp;P1;durP1;ratioP1;P2;durP2;ratioP2
16352;SDS011;8286;51.274;9.542;2022-08-05T00:02:19;9.57;;;3.70;;
16352;SDS011;8286;51.274;9.542;2022-08-05T00:04:46;6.75;;;3.08;;
16352;SDS011;8286;51.274;9.542;2022-08-05T00:07:14;5.07;;;3.38;;
16352;SDS011;8286;51.274;9.542;2022-08-05T00:09:40;5.75;;;2.83;;
16352;SDS011;8286;51.274;9.542;2022-08-05T00:12:08;5.28;;;3.50;;
16352;SDS011;8286;51.274;9.542;2022-08-05T00:14:35;5.90;;;4.03;;
16352;SDS011;8286;51.274;9.542;2022-08-05T00:17:02;5.90;;;3.20;;
16352;SDS011;8286;51.274;9.542;2022-08-05T00:19:28;3.88;;;3.30;;
16352;SDS011;8286;51.274;9.542;2022-08-05T00:21:55;4.53;;;3.22;;
16352;SDS011;8286;51.274;9.542;2022-08-05T00:24:22;5.90;;;3.10;;
16352;SDS011;8286;51.274;9.542;2022-08-05T00:26:48;6.90;;;3.20;;
16352;SDS011;8286;51.274;9.542;2022-08-05T00:29:16;3.60;;;3.00;;
16352;SDS011;8286;51.274;9.542;2022-08-05T00:31:43;5.80;;;3.05;;
16352;SDS011;8286;51.274;9.542;2022-08-05T00:34:10;5.05;;;3.65;;
16352;SDS011;8286;51.274;9.542;2022-08-05T00:36:36;6.57;;;3.50;;
16352;SDS011;8286;51.274;9.542;2022-08-05T00:39:03;8.27;;;3.60;;
16352;SDS011;8286;51.274;9.542;2022-08-05T00:41:30;8.52;;;4.40;;
16352;SDS011;8286;51.274;9.542;2022-08-05T00:43:57;3.70;;;3.30;;
16352;SDS011;8286;51.274;9.542;2022-08-05T00:46:26;6.38;;;3.50;;
16352;SDS011;8286;51.274;9.542;2022-08-05T00:48:52;3.95;;;3.47;;
16352;SDS011;8286;51.274;9.542;2022-08-05T00:51:19;5.95;;;2.70;;
16352;SDS011;8286;51.274;9.542;2022-08-05T00:53:46;7.63;;;3.47;;
16352;SDS011;8286;51.274;9.542;2022-08-05T00:56:13;3.85;;;3.55;;
16352;SDS011;8286;51.274;9.542;2022-08-05T00:58:40;4.68;;;3.50;;
16352;SDS011;8286;51.274;9.542;2022-08-05T01:01:08;4.93;;;3.10;;
16352;SDS011;8286;51.274;9.542;2022-08-05T01:03:36;4.85;;;3.00;;
16352;SDS011;8286;51.274;9.542;2022-08-05T01:06:03;20.52;;;4.03;;
16352;SDS011;8286;51.274;9.542;2022-08-05T01:08:29;17.30;;;5.40;;
16352;SDS011;8286;51.274;9.542;2022-08-05T01:10:57;8.27;;;5.30;;
16352;SDS011;8286;51.274;9.542;2022-08-05T01:13:28;8.25;;;5.60;;
16352;SDS011;8286;51.274;9.542;2022-08-05T01:15:59;7.82;;;5.55;;
16352;SDS011;8286;51.274;9.542;2022-08-05T01:18:28;7.30;;;5.43;;
16352;SDS011;8286;51.274;9.542;2022-08-05T01:21:03;6.65;;;5.63;;
16352;SDS011;8286;51.274;9.542;2022-08-05T01:23:45;9.38;;;6.05;;
16352;SDS011;8286;51.274;9.542;2022-08-05T01:26:28;9.40;;;6.28;;
16352;SDS011;8286;51.274;9.542;2022-08-05T01:29:00;11.52;;;6.43;;
16352;SDS011;8286;51.274;9.542;2022-08-05T01:31:32;10.38;;;6.55;;
16352;SDS011;8286;51.274;9.542;2022-08-05T01:34:00;9.27;;;7.20;;
16352;SDS011;8286;51.274;9.542;2022-08-05T01:36:30;11.93;;;7.55;;
16352;SDS011;8286;51.274;9.542;2022-08-05T01:38:59;8.15;;;7.22;;
16352;SDS011;8286;51.274;9.542;2022-08-05T01:41:26;11.07;;;8.18;;
16352;SDS011;8286;51.274;9.542;2022-08-05T01:43:56;10.95;;;8.27;;
16352;SDS011;8286;51.274;9.542;2022-08-05T01:46:24;10.98;;;8.13;;
16352;SDS011;8286;51.274;9.542;2022-08-05T01:48:52;10.63;;;7.88;;
16352;SDS011;8286;51.274;9.542;2022-08-05T01:51:19;14.68;;;7.93;;
16352;SDS011;8286;51.274;9.542;2022-08-05T01:53:48;15.35;;;7.50;;
16352;SDS011;8286;51.274;9.542;2022-08-05T01:56:16;11.50;;;8.30;;
16352;SDS011;8286;51.274;9.542;2022-08-05T01:58:43;10.80;;;7.28;;
16352;SDS011;8286;51.274;9.542;2022-08-05T02:01:10;10.25;;;7.22;;
16352;SDS011;8286;51.274;9.542;2022-08-05T02:03:39;8.65;;;6.63;;
16352;SDS011;8286;51.274;9.542;2022-08-05T02:06:07;10.57;;;6.85;;
16352;SDS011;8286;51.274;9.542;2022-08-05T02:08:35;10.05;;;6.75;;
16352;SDS011;8286;51.274;9.542;2022-08-05T02:11:02;11.65;;;7.05;;
16352;SDS011;8286;51.274;9.542;2022-08-05T02:13:32;20.42;;;7.18;;
16352;SDS011;8286;51.274;9.542;2022-08-05T02:16:03;14.48;;;6.35;;
16352;SDS011;8286;51.274;9.542;2022-08-05T02:18:34;12.40;;;6.63;;
16352;SDS011;8286;51.274;9.542;2022-08-05T02:21:07;9.40;;;6.00;;
16352;SDS011;8286;51.274;9.542;2022-08-05T02:23:36;12.38;;;6.40;;
16352;SDS011;8286;51.274;9.542;2022-08-05T02:26:05;10.63;;;5.97;;
16352;SDS011;8286;51.274;9.542;2022-08-05T02:28:33;10.48;;;5.88;;
16352;SDS011;8286;51.274;9.542;2022-08-05T02:31:04;13.13;;;6.20;;
16352;SDS011;8286;51.274;9.542;2022-08-05T02:33:34;7.65;;;5.78;;
16352;SDS011;8286;51.274;9.542;2022-08-05T02:36:02;12.75;;;6.43;;
16352;SDS011;8286;51.274;9.542;2022-08-05T02:38:31;14.50;;;6.82;;
16352;SDS011;8286;51.274;9.542;2022-08-05T02:40:59;9.80;;;6.15;;
16352;SDS011;8286;51.274;9.542;2022-08-05T02:43:26;14.80;;;8.05;;
16352;SDS011;8286;51.274;9.542;2022-08-05T02:45:53;12.25;;;7.82;;
16352;SDS011;8286;51.274;9.542;2022-08-05T02:48:20;15.52;;;8.40;;
16352;SDS011;8286;51.274;9.542;2022-08-05T02:50:47;15.07;;;7.88;;
16352;SDS011;8286;51.274;9.542;2022-08-05T02:53:17;11.88;;;8.40;;
16352;SDS011;8286;51.274;9.542;2022-08-05T02:55:46;13.82;;;8.57;;
16352;SDS011;8286;51.274;9.542;2022-08-05T02:58:13;14.85;;;8.32;;
16352;SDS011;8286;51.274;9.542;2022-08-05T03:00:41;13.90;;;9.10;;
16352;SDS011;8286;51.274;9.542;2022-08-05T03:03:10;15.27;;;9.45;;
16352;SDS011;8286;51.274;9.542;2022-08-05T03:05:38;13.65;;;9.68;;
16352;SDS011;8286;51.274;9.542;2022-08-05T03:08:05;18.75;;;10.30;;
16352;SDS011;8286;51.274;9.542;2022-08-05T03:10:33;15.20;;;9.93;;
16352;SDS011;8286;51.274;9.542;2022-08-05T03:13:00;12.95;;;10.25;;
16352;SDS011;8286;51.274;9.542;2022-08-05T03:15:27;14.35;;;10.23;;
16352;SDS011;8286;51.274;9.542;2022-08-05T03:17:53;15.55;;;9.98;;
16352;SDS011;8286;51.274;9.542;2022-08-05T03:20:20;15.05;;;11.05;;
16352;SDS011;8286;51.274;9.542;2022-08-05T03:22:47;15.27;;;10.98;;
16352;SDS011;8286;51.274;9.542;2022-08-05T03:25:13;14.38;;;11.43;;
16352;SDS011;8286;51.274;9.542;2022-08-05T03:27:42;16.92;;;10.75;;
16352;SDS011;8286;51.274;9.542;2022-08-05T03:30:09;13.77;;;10.75;;
16352;SDS011;8286;51.274;9.542;2022-08-05T03:32:36;14.85;;;11.00;;
16352;SDS011;8286;51.274;9.542;2022-08-05T03:35:04;13.00;;;9.90;;
16352;SDS011;8286;51.274;9.542;2022-08-05T03:37:31;14.00;;;9.93;;
16352;SDS011;8286;51.274;9.542;2022-08-05T03:39:58;12.85;;;9.98;;
16352;SDS011;8286;51.274;9.542;2022-08-05T03:42:27;12.20;;;8.23;;
16352;SDS011;8286;51.274;9.542;2022-08-05T03:44:55;11.23;;;8.40;;
16352;SDS011;8286;51.274;9.542;2022-08-05T03:47:22;11.90;;;8.90;;
16352;SDS011;8286;51.274;9.542;2022-08-05T03:49:49;12.20;;;9.02;;
16352;SDS011;8286;51.274;9.542;2022-08-05T03:52:17;10.90;;;7.65;;
16352;SDS011;8286;51.274;9.542;2022-08-05T03:54:47;10.63;;;7.25;;
16352;SDS011;8286;51.274;9.542;2022-08-05T03:57:16;10.55;;;7.05;;
16352;SDS011;8286;51.274;9.542;2022-08-05T03:59:45;9.80;;;7.95;;
16352;SDS011;8286;51.274;9.542;2022-08-05T04:02:16;10.10;;;8.25;;
16352;SDS011;8286;51.274;9.542;2022-08-05T04:04:44;10.18;;;7.38;;
16352;SDS011;8286;51.274;9.542;2022-08-05T04:07:11;10.60;;;8.07;;
16352;SDS011;8286;51.274;9.542;2022-08-05T04:09:38;9.88;;;7.60;;
16352;SDS011;8286;51.274;9.542;2022-08-05T04:12:05;8.68;;;7.43;;
16352;SDS011;8286;51.274;9.542;2022-08-05T04:14:33;12.68;;;8.60;;
16352;SDS011;8286;51.274;9.542;2022-08-05T04:17:01;9.02;;;7.75;;
16352;SDS011;8286;51.274;9.542;2022-08-05T04:19:29;10.95;;;8.00;;
16352;SDS011;8286;51.274;9.542;2022-08-05T04:21:56;10.57;;;7.65;;
16352;SDS011;8286;51.274;9.542;2022-08-05T04:24:22;9.23;;;7.50;;
16352;SDS011;8286;51.274;9.542;2022-08-05T04:26:49;10.00;;;8.18;;
16352;SDS011;8286;51.274;9.542;2022-08-05T04:29:16;17.48;;;8.60;;
16352;SDS011;8286;51.274;9.542;2022-08-05T04:31:42;11.35;;;7.70;;
16352;SDS011;8286;51.274;9.542;2022-08-05T04:34:09;10.30;;;7.70;;
16352;SDS011;8286;51.274;9.542;2022-08-05T04:36:37;10.85;;;7.82;;
16352;SDS011;8286;51.274;9.542;2022-08-05T04:39:04;10.02;;;8.18;;
16352;SDS011;8286;51.274;9.542;2022-08-05T04:41:30;12.07;;;8.60;;
16352;SDS011;8286;51.274;9.542;2022-08-05T04:43:57;14.63;;;8.48;;
16352;SDS011;8286;51.274;9.542;2022-08-05T04:46:23;10.48;;;8.27;;
16352;SDS011;8286;51.274;9.542;2022-08-05T04:48:50;13.18;;;8.82;;
16352;SDS011;8286;51.274;9.542;2022-08-05T04:51:17;13.40;;;9.40;;
16352;SDS011;8286;51.274;9.542;2022-08-05T04:53:45;13.70;;;8.75;;
16352;SDS011;8286;51.274;9.542;2022-08-05T04:56:11;14.98;;;8.68;;
16352;SDS011;8286;51.274;9.542;2022-08-05T04:58:38;13.25;;;8.27;;
16352;SDS011;8286;51.274;9.542;2022-08-05T05:01:05;16.80;;;9.40;;
16352;SDS011;8286;51.274;9.542;2022-08-05T05:03:32;14.93;;;9.13;;
16352;SDS011;8286;51.274;9.542;2022-08-05T05:05:59;10.57;;;8.43;;
16352;SDS011;8286;51.274;9.542;2022-08-05T05:08:25;13.18;;;9.52;;
16352;SDS011;8286;51.274;9.542;2022-08-05T05:10:53;13.10;;;8.18;;
16352;SDS011;8286;51.274;9.542;2022-08-05T05:13:21;15.70;;;7.72;;
16352;SDS011;8286;51.274;9.542;2022-08-05T05:15:47;16.38;;;8.73;;
16352;SDS011;8286;51.274;9.542;2022-08-05T05:18:14;10.40;;;7.60;;
16352;SDS011;8286;51.274;9.542;2022-08-05T05:20:41;14.35;;;7.60;;
16352;SDS011;8286;51.274;9.542;2022-08-05T05:23:08;11.35;;;7.80;;
16352;SDS011;8286;51.274;9.542;2022-08-05T05:25:35;15.63;;;8.70;;
16352;SDS011;8286;51.274;9.542;2022-08-05T05:28:05;12.55;;;8.02;;
16352;SDS011;8286;51.274;9.542;2022-08-05T05:30:32;12.82;;;9.00;;
16352;SDS011;8286;51.274;9.542;2022-08-05T05:32:59;14.13;;;8.57;;
16352;SDS011;8286;51.274;9.542;2022-08-05T05:35:27;13.27;;;7.28;;
16352;SDS011;8286;51.274;9.542;2022-08-05T05:37:55;12.55;;;7.55;;
16352;SDS011;8286;51.274;9.542;2022-08-05T05:40:24;8.65;;;6.50;;
16352;SDS011;8286;51.274;9.542;2022-08-05T05:42:51;8.52;;;6.85;;
16352;SDS011;8286;51.274;9.542;2022-08-05T05:45:20;13.63;;;7.75;;
16352;SDS011;8286;51.274;9.542;2022-08-05T05:47:47;10.52;;;7.53;;
16352;SDS011;8286;51.274;9.542;2022-08-05T05:50:14;9.70;;;5.97;;
16352;SDS011;8286;51.274;9.542;2022-08-05T05:52:41;7.70;;;5.63;;
16352;SDS011;8286;51.274;9.542;2022-08-05T05:55:09;10.13;;;5.40;;
16352;SDS011;8286;51.274;9.542;2022-08-05T05:57:37;5.90;;;5.10;;
16352;SDS011;8286;51.274;9.542;2022-08-05T06:00:05;6.40;;;4.97;;
16352;SDS011;8286;51.274;9.542;2022-08-05T06:02:35;7.88;;;5.30;;
16352;SDS011;8286;51.274;9.542;2022-08-05T06:05:02;8.52;;;5.45;;
16352;SDS011;8286;51.274;9.542;2022-08-05T06:07:28;8.95;;;5.47;;
16352;SDS011;8286;51.274;9.542;2022-08-05T06:09:55;12.27;;;6.15;;
16352;SDS011;8286;51.274;9.542;2022-08-05T06:12:22;10.63;;;6.03;;
16352;SDS011;8286;51.274;9.542;2022-08-05T06:14:48;7.95;;;5.88;;
16352;SDS011;8286;51.274;9.542;2022-08-05T06:17:15;10.60;;;6.30;;
16352;SDS011;8286;51.274;9.542;2022-08-05T06:19:43;9.10;;;6.72;;
16352;SDS011;8286;51.274;9.542;2022-08-05T06:22:10;7.43;;;6.05;;
16352;SDS011;8286;51.274;9.542;2022-08-05T06:24:40;10.75;;;6.20;;
16352;SDS011;8286;51.274;9.542;2022-08-05T06:27:07;10.88;;;5.88;;
16352;SDS011;8286;51.274;9.542;2022-08-05T06:29:34;11.75;;;6.47;;
16352;SDS011;8286;51.274;9.542;2022-08-05T06:32:01;9.70;;;5.97;;
16352;SDS011;8286;51.274;9.542;2022-08-05T06:34:27;8.40;;;5.95;;
16352;SDS011;8286;51.274;9.542;2022-08-05T06:36:55;7.15;;;5.43;;
16352;SDS011;8286;51.274;9.542;2022-08-05T06:39:22;13.73;;;5.90;;
16352;SDS011;8286;51.274;9.542;2022-08-05T06:41:48;10.77;;;5.63;;
16352;SDS011;8286;51.274;9.542;2022-08-05T06:44:15;7.05;;;5.30;;
16352;SDS011;8286;51.274;9.542;2022-08-05T06:46:42;6.53;;;5.78;;
16352;SDS011;8286;51.274;9.542;2022-08-05T06:49:08;8.20;;;5.72;;
16352;SDS011;8286;51.274;9.542;2022-08-05T06:51:35;13.48;;;5.18;;
16352;SDS011;8286;51.274;9.542;2022-08-05T06:54:03;7.72;;;4.88;;
16352;SDS011;8286;51.274;9.542;2022-08-05T06:56:30;9.10;;;5.20;;
16352;SDS011;8286;51.274;9.542;2022-08-05T06:58:57;8.93;;;5.22;;
16352;SDS011;8286;51.274;9.542;2022-08-05T07:01:24;7.22;;;5.25;;
16352;SDS011;8286;51.274;9.542;2022-08-05T07:03:50;10.00;;;5.50;;
16352;SDS011;8286;51.274;9.542;2022-08-05T07:06:17;12.18;;;5.75;;
16352;SDS011;8286;51.274;9.542;2022-08-05T07:08:44;9.43;;;6.22;;
16352;SDS011;8286;51.274;9.542;2022-08-05T07:11:12;9.70;;;5.85;;
16352;SDS011;8286;51.274;9.542;2022-08-05T07:13:38;8.88;;;5.70;;
16352;SDS011;8286;51.274;9.542;2022-08-05T07:16:22;8.70;;;5.38;;
16352;SDS011;8286;51.274;9.542;2022-08-05T07:19:06;7.70;;;5.00;;
16352;SDS011;8286;51.274;9.542;2022-08-05T07:21:33;9.00;;;5.25;;
16352;SDS011;8286;51.274;9.542;2022-08-05T07:24:00;5.95;;;5.00;;
16352;SDS011;8286;51.274;9.542;2022-08-05T07:26:27;9.30;;;4.60;;
16352;SDS011;8286;51.274;9.542;2022-08-05T07:28:54;5.28;;;4.72;;
16352;SDS011;8286;51.274;9.542;2022-08-05T07:31:21;6.15;;;4.60;;
16352;SDS011;8286;51.274;9.542;2022-08-05T07:33:47;5.28;;;4.88;;
16352;SDS011;8286;51.274;9.542;2022-08-05T07:36:14;5.88;;;4.32;;
16352;SDS011;8286;51.274;9.542;2022-08-05T07:38:41;7.45;;;4.38;;
16352;SDS011;8286;51.274;9.542;2022-08-05T07:41:08;6.88;;;4.45;;
16352;SDS011;8286;51.274;9.542;2022-08-05T07:43:37;5.13;;;4.63;;
16352;SDS011;8286;51.274;9.542;2022-08-05T07:46:04;6.80;;;4.78;;
16352;SDS011;8286;51.274;9.542;2022-08-05T07:48:30;5.95;;;4.65;;
16352;SDS011;8286;51.274;9.542;2022-08-05T07:50:57;6.68;;;4.13;;
16352;SDS011;8286;51.274;9.542;2022-08-05T07:53:25;8.07;;;4.15;;
16352;SDS011;8286;51.274;9.542;2022-08-05T07:55:51;4.28;;;3.88;;
16352;SDS011;8286;51.274;9.542;2022-08-05T07:58:18;4.10;;;3.63;;
16352;SDS011;8286;51.274;9.542;2022-08-05T08:00:46;6.53;;;3.47;;
16352;SDS011;8286;51.274;9.542;2022-08-05T08:03:14;8.55;;;3.95;;
16352;SDS011;8286;51.274;9.542;2022-08-05T08:05:41;6.35;;;3.60;;
16352;SDS011;8286;51.274;9.542;2022-08-05T08:08:08;4.57;;;3.78;;
16352;SDS011;8286;51.274;9.542;2022-08-05T08:10:35;6.82;;;4.43;;
16352;SDS011;8286;51.274;9.542;2022-08-05T08:13:02;4.00;;;3.53;;
16352;SDS011;8286;51.274;9.542;2022-08-05T08:15:29;6.07;;;3.80;;
16352;SDS011;8286;51.274;9.542;2022-08-05T08:17:57;5.78;;;3.65;;
16352;SDS011;8286;51.274;9.542;2022-08-05T08:20:24;6.65;;;3.38;;
16352;SDS011;8286;51.274;9.542;2022-08-05T08:22:52;4.88;;;3.88;;
16352;SDS011;8286;51.274;9.542;2022-08-05T08:25:19;4.22;;;3.83;;
16352;SDS011;8286;51.274;9.542;2022-08-05T08:27:46;6.38;;;4.15;;
16352;SDS011;8286;51.274;9.542;2022-08-05T08:30:13;5.35;;;4.25;;
16352;SDS011;8286;51.274;9.542;2022-08-05T08:32:40;4.47;;;4.05;;
16352;SDS011;8286;51.274;9.542;2022-08-05T08:35:08;4.68;;;4.25;;
16352;SDS011;8286;51.274;9.542;2022-08-05T08:37:35;4.88;;;4.13;;
16352;SDS011;8286;51.274;9.542;2022-08-05T08:40:02;6.60;;;4.50;;
16352;SDS011;8286;51.274;9.542;2022-08-05T08:42:30;7.25;;;4.78;;
16352;SDS011;8286;51.274;9.542;2022-08-05T08:44:58;6.07;;;4.22;;
16352;SDS011;8286;51.274;9.542;2022-08-05T08:47:25;6.80;;;4.45;;
16352;SDS011;8286;51.274;9.542;2022-08-05T08:49:53;7.63;;;4.50;;
16352;SDS011;8286;51.274;9.542;2022-08-05T08:52:23;6.80;;;4.82;;
16352;SDS011;8286;51.274;9.542;2022-08-05T08:54:50;5.95;;;4.25;;
16352;SDS011;8286;51.274;9.542;2022-08-05T08:57:18;5.03;;;3.78;;
16352;SDS011;8286;51.274;9.542;2022-08-05T08:59:45;5.70;;;4.50;;
16352;SDS011;8286;51.274;9.542;2022-08-05T09:02:11;6.78;;;4.50;;
16352;SDS011;8286;51.274;9.542;2022-08-05T09:04:38;5.30;;;4.80;;
16352;SDS011;8286;51.274;9.542;2022-08-05T09:07:05;7.70;;;4.80;;
16352;SDS011;8286;51.274;9.542;2022-08-05T09:09:34;5.20;;;4.70;;
16352;SDS011;8286;51.274;9.542;2022-08-05T09:12:01;5.97;;;4.15;;
16352;SDS011;8286;51.274;9.542;2022-08-05T09:14:29;4.85;;;4.28;;
16352;SDS011;8286;51.274;9.542;2022-08-05T09:16:57;6.13;;;4.55;;
16352;SDS011;8286;51.274;9.542;2022-08-05T09:19:24;4.15;;;3.85;;
16352;SDS011;8286;51.274;9.542;2022-08-05T09:21:51;4.03;;;3.72;;
16352;SDS011;8286;51.274;9.542;2022-08-05T09:24:18;5.63;;;3.95;;
16352;SDS011;8286;51.274;9.542;2022-08-05T09:26:50;6.70;;;4.70;;
16352;SDS011;8286;51.274;9.542;2022-08-05T09:29:18;4.47;;;4.07;;
16352;SDS011;8286;51.274;9.542;2022-08-05T09:31:59;6.70;;;4.57;;
16352;SDS011;8286;51.274;9.542;2022-08-05T09:34:27;5.28;;;4.57;;
16352;SDS011;8286;51.274;9.542;2022-08-05T09:37:16;4.95;;;4.45;;
16352;SDS011;8286;51.274;9.542;2022-08-05T09:39:43;5.68;;;4.68;;
16352;SDS011;8286;51.274;9.542;2022-08-05T09:42:11;5.70;;;4.72;;
16352;SDS011;8286;51.274;9.542;2022-08-05T09:44:40;5.90;;;5.00;;
16352;SDS011;8286;51.274;9.542;2022-08-05T09:47:08;6.07;;;5.20;;
16352;SDS011;8286;51.274;9.542;2022-08-05T09:49:42;6.68;;;4.60;;
16352;SDS011;8286;51.274;9.542;2022-08-05T09:52:20;6.05;;;5.30;;
16352;SDS011;8286;51.274;9.542;2022-08-05T09:54:55;7.43;;;4.82;;
16352;SDS011;8286;51.274;9.542;2022-08-05T09:57:35;8.45;;;4.80;;
16352;SDS011;8286;51.274;9.542;2022-08-05T10:00:05;6.90;;;4.78;;
16352;SDS011;8286;51.274;9.542;2022-08-05T10:02:36;6.10;;;4.25;;
16352;SDS011;8286;51.274;9.542;2022-08-05T10:05:05;5.85;;;5.32;;
16352;SDS011;8286;51.274;9.542;2022-08-05T10:07:44;7.15;;;4.63;;
16352;SDS011;8286;51.274;9.542;2022-08-05T10:10:12;5.72;;;4.38;;
16352;SDS011;8286;51.274;9.542;2022-08-05T10:12:42;6.90;;;4.40;;
16352;SDS011;8286;51.274;9.542;2022-08-05T10:15:14;6.72;;;4.85;;
16352;SDS011;8286;51.274;9.542;2022-08-05T10:17:42;6.03;;;3.67;;
16352;SDS011;8286;51.274;9.542;2022-08-05T10:20:09;4.20;;;3.90;;
16352;SDS011;8286;51.274;9.542;2022-08-05T10:22:37;4.15;;;3.70;;
16352;SDS011;8286;51.274;9.542;2022-08-05T10:25:05;3.92;;;3.63;;
16352;SDS011;8286;51.274;9.542;2022-08-05T10:27:32;4.32;;;3.78;;
16352;SDS011;8286;51.274;9.542;2022-08-05T10:30:00;6.05;;;3.97;;
16352;SDS011;8286;51.274;9.542;2022-08-05T10:32:27;4.25;;;3.80;;
16352;SDS011;8286;51.274;9.542;2022-08-05T10:34:55;4.78;;;4.22;;
16352;SDS011;8286;51.274;9.542;2022-08-05T10:37:23;5.18;;;4.35;;
16352;SDS011;8286;51.274;9.542;2022-08-05T10:39:53;5.95;;;3.95;;
16352;SDS011;8286;51.274;9.542;2022-08-05T10:42:23;4.95;;;3.90;;
16352;SDS011;8286;51.274;9.542;2022-08-05T10:44:49;7.18;;;4.97;;
16352;SDS011;8286;51.274;9.542;2022-08-05T10:47:18;5.05;;;3.83;;
16352;SDS011;8286;51.274;9.542;2022-08-05T10:50:00;6.00;;;4.18;;
16352;SDS011;8286;51.274;9.542;2022-08-05T10:52:37;5.90;;;3.85;;
16352;SDS011;8286;51.274;9.542;2022-08-05T10:55:05;5.10;;;3.78;;
16352;SDS011;8286;51.274;9.542;2022-08-05T10:57:34;4.65;;;4.10;;
16352;SDS011;8286;51.274;9.542;2022-08-05T11:00:12;6.22;;;3.83;;
16352;SDS011;8286;51.274;9.542;2022-08-05T11:05:35;3.78;;;3.38;;
16352;SDS011;8286;51.274;9.542;2022-08-05T11:08:03;5.40;;;3.90;;
16352;SDS011;8286;51.274;9.542;2022-08-05T11:10:31;5.13;;;3.55;;
16352;SDS011;8286;51.274;9.542;2022-08-05T11:13:01;5.45;;;3.40;;
16352;SDS011;8286;51.274;9.542;2022-08-05T11:15:28;5.32;;;3.90;;
16352;SDS011;8286;51.274;9.542;2022-08-05T11:18:04;3.83;;;3.42;;
16352;SDS011;8286;51.274;9.542;2022-08-05T11:20:38;3.45;;;3.15;;
16352;SDS011;8286;51.274;9.542;2022-08-05T11:23:25;4.00;;;3.70;;
16352;SDS011;8286;51.274;9.542;2022-08-05T11:25:59;4.68;;;4.18;;
16352;SDS011;8286;51.274;9.542;2022-08-05T11:28:37;9.77;;;4.22;;
16352;SDS011;8286;51.274;9.542;2022-08-05T11:31:17;7.70;;;4.60;;
16352;SDS011;8286;51.274;9.542;2022-08-05T11:33:56;6.22;;;3.70;;
16352;SDS011;8286;51.274;9.542;2022-08-05T11:36:45;4.53;;;3.60;;
16352;SDS011;8286;51.274;9.542;2022-08-05T11:39:19;4.15;;;3.50;;
16352;SDS011;8286;51.274;9.542;2022-08-05T11:42:12;7.47;;;5.63;;
16352;SDS011;8286;51.274;9.542;2022-08-05T11:44:39;7.95;;;6.15;;
16352;SDS011;8286;51.274;9.542;2022-08-05T11:47:06;9.10;;;6.80;;
16352;SDS011;8286;51.274;9.542;2022-08-05T11:49:32;8.52;;;7.20;;
16352;SDS011;8286;51.274;9.542;2022-08-05T11:52:00;9.63;;;7.57;;
16352;SDS011;8286;51.274;9.542;2022-08-05T11:54:27;14.73;;;9.02;;
16352;SDS011;8286;51.274;9.542;2022-08-05T11:56:58;14.43;;;9.00;;
16352;SDS011;8286;51.274;9.542;2022-08-05T11:59:27;15.25;;;9.85;;
16352;SDS011;8286;51.274;9.542;2022-08-05T12:01:55;17.38;;;10.07;;
16352;SDS011;8286;51.274;9.542;2022-08-05T12:04:23;12.77;;;9.65;;
16352;SDS011;8286;51.274;9.542;2022-08-05T12:06:51;14.68;;;9.93;;
16352;SDS011;8286;51.274;9.542;2022-08-05T12:09:22;15.68;;;10.15;;
16352;SDS011;8286;51.274;9.542;2022-08-05T12:11:51;13.13;;;8.98;;
16352;SDS011;8286;51.274;9.542;2022-08-05T12:14:18;15.07;;;9.77;;
16352;SDS011;8286;51.274;9.542;2022-08-05T12:16:46;15.10;;;9.50;;
16352;SDS011;8286;51.274;9.542;2022-08-05T12:19:13;12.80;;;8.57;;
16352;SDS011;8286;51.274;9.542;2022-08-05T12:21:42;10.73;;;8.05;;
16352;SDS011;8286;51.274;9.542;2022-08-05T12:24:11;11.20;;;8.18;;
16352;SDS011;8286;51.274;9.542;2022-08-05T12:26:40;12.55;;;8.50;;
16352;SDS011;8286;51.274;9.542;2022-08-05T12:29:10;13.32;;;9.18;;
16352;SDS011;8286;51.274;9.542;2022-08-05T12:31:37;10.27;;;7.35;;
16352;SDS011;8286;51.274;9.542;2022-08-05T12:34:06;14.00;;;8.32;;
16352;SDS011;8286;51.274;9.542;2022-08-05T12:36:33;12.38;;;8.32;;
16352;SDS011;8286;51.274;9.542;2022-08-05T12:39:01;9.90;;;7.00;;
16352;SDS011;8286;51.274;9.542;2022-08-05T12:41:29;9.13;;;7.25;;
16352;SDS011;8286;51.274;9.542;2022-08-05T12:43:59;11.20;;;6.85;;
16352;SDS011;8286;51.274;9.542;2022-08-05T12:46:28;11.13;;;7.22;;
16352;SDS011;8286;51.274;9.542;2022-08-05T12:48:56;9.43;;;5.63;;
16352;SDS011;8286;51.274;9.542;2022-08-05T12:51:26;8.05;;;5.55;;
16352;SDS011;8286;51.274;9.542;2022-08-05T12:53:58;5.47;;;4.93;;
16352;SDS011;8286;51.274;9.542;2022-08-05T12:56:26;7.55;;;5.28;;
16352;SDS011;8286;51.274;9.542;2022-08-05T13:01:41;6.63;;;4.88;;
16352;SDS011;8286;51.274;9.542;2022-08-05T13:04:08;6.15;;;4.75;;
16352;SDS011;8286;51.274;9.542;2022-08-05T13:06:36;7.50;;;4.88;;
16352;SDS011;8286;51.274;9.542;2022-08-05T13:09:07;5.97;;;5.38;;
16352;SDS011;8286;51.274;9.542;2022-08-05T13:11:36;5.97;;;4.82;;
16352;SDS011;8286;51.274;9.542;2022-08-05T13:14:17;8.35;;;4.85;;
16352;SDS011;8286;51.274;9.542;2022-08-05T13:16:45;6.78;;;4.57;;
16352;SDS011;8286;51.274;9.542;2022-08-05T13:19:13;7.28;;;4.70;;
16352;SDS011;8286;51.274;9.542;2022-08-05T13:21:39;7.05;;;3.90;;
16352;SDS011;8286;51.274;9.542;2022-08-05T13:24:06;8.13;;;3.65;;
16352;SDS011;8286;51.274;9.542;2022-08-05T13:26:32;4.40;;;3.80;;
16352;SDS011;8286;51.274;9.542;2022-08-05T13:28:59;6.15;;;3.63;;
16352;SDS011;8286;51.274;9.542;2022-08-05T13:31:27;7.60;;;3.78;;
16352;SDS011;8286;51.274;9.542;2022-08-05T13:33:54;5.50;;;3.35;;
16352;SDS011;8286;51.274;9.542;2022-08-05T13:36:20;3.97;;;3.58;;
16352;SDS011;8286;51.274;9.542;2022-08-05T13:38:47;9.20;;;3.85;;
16352;SDS011;8286;51.274;9.542;2022-08-05T13:41:14;7.57;;;3.90;;
16352;SDS011;8286;51.274;9.542;2022-08-05T13:43:40;5.68;;;3.22;;
16352;SDS011;8286;51.274;9.542;2022-08-05T13:46:08;5.28;;;3.17;;
16352;SDS011;8286;51.274;9.542;2022-08-05T13:48:37;3.55;;;3.00;;
16352;SDS011;8286;51.274;9.542;2022-08-05T13:51:04;3.00;;;2.80;;
16352;SDS011;8286;51.274;9.542;2022-08-05T13:53:31;5.82;;;3.08;;
16352;SDS011;8286;51.274;9.542;2022-08-05T13:55:59;6.18;;;3.35;;
16352;SDS011;8286;51.274;9.542;2022-08-05T13:58:25;6.03;;;3.22;;
16352;SDS011;8286;51.274;9.542;2022-08-05T14:00:52;2.85;;;2.60;;
16352;SDS011;8286;51.274;9.542;2022-08-05T14:03:19;3.05;;;2.85;;
16352;SDS011;8286;51.274;9.542;2022-08-05T14:05:47;3.67;;;2.40;;
16352;SDS011;8286;51.274;9.542;2022-08-05T14:08:13;2.72;;;2.30;;
16352;SDS011;8286;51.274;9.542;2022-08-05T14:10:41;1.92;;;1.83;;
16352;SDS011;8286;51.274;9.542;2022-08-05T14:13:07;1.83;;;1.73;;
16352;SDS011;8286;51.274;9.542;2022-08-05T14:15:34;3.40;;;2.47;;
16352;SDS011;8286;51.274;9.542;2022-08-05T14:18:01;3.00;;;2.40;;
16352;SDS011;8286;51.274;9.542;2022-08-05T14:20:28;4.93;;;2.25;;
16352;SDS011;8286;51.274;9.542;2022-08-05T14:22:56;3.72;;;2.25;;
16352;SDS011;8286;51.274;9.542;2022-08-05T14:25:23;2.10;;;2.00;;
16352;SDS011;8286;51.274;9.542;2022-08-05T14:27:50;2.72;;;1.98;;
16352;SDS011;8286;51.274;9.542;2022-08-05T14:30:17;2.67;;;1.70;;
16352;SDS011;8286;51.274;9.542;2022-08-05T14:32:44;4.07;;;2.42;;
16352;SDS011;8286;51.274;9.542;2022-08-05T14:35:11;2.00;;;1.88;;
16352;SDS011;8286;51.274;9.542;2022-08-05T14:37:37;1.67;;;1.58;;
16352;SDS011;8286;51.274;9.542;2022-08-05T14:40:06;2.42;;;1.70;;
16352;SDS011;8286;51.274;9.542;2022-08-05T14:42:34;5.15;;;1.50;;
16352;SDS011;8286;51.274;9.542;2022-08-05T14:45:00;3.42;;;1.40;;
16352;SDS011;8286;51.274;9.542;2022-08-05T14:47:27;2.97;;;1.45;;
16352;SDS011;8286;51.274;9.542;2022-08-05T14:49:54;4.00;;;1.73;;
16352;SDS011;8286;51.274;9.542;2022-08-05T14:52:20;2.03;;;1.35;;
16352;SDS011;8286;51.274;9.542;2022-08-05T14:54:47;3.45;;;1.38;;
16352;SDS011;8286;51.274;9.542;2022-08-05T14:57:15;5.70;;;1.65;;
16352;SDS011;8286;51.274;9.542;2022-08-05T14:59:42;2.95;;;1.20;;
16352;SDS011;8286;51.274;9.542;2022-08-05T15:02:08;1.90;;;1.73;;
16352;SDS011;8286;51.274;9.542;2022-08-05T15:04:35;2.92;;;1.20;;
16352;SDS011;8286;51.274;9.542;2022-08-05T15:07:01;4.60;;;1.38;;
16352;SDS011;8286;51.274;9.542;2022-08-05T15:09:28;1.33;;;1.23;;